createdAt,value
2023-03-19T00:02:17.570Z,66.18
2023-03-19T00:04:58.685Z,55.95
2023-03-19T00:07:39.771Z,47.15
2023-03-19T00:10:29.167Z,49.40
2023-03-19T00:13:10.140Z,46.85
2023-03-19T00:15:54.329Z,38.03
2023-03-19T00:18:49.341Z,35.58
2023-03-19T00:21:35.519Z,28.90
2023-03-19T00:24:25.235Z,27.70
2023-03-19T00:27:13.757Z,24.88
2023-03-19T00:29:55.460Z,24.02
2023-03-19T00:32:40.392Z,22.65
2023-03-19T00:35:25.462Z,23.38
2023-03-19T00:38:11.497Z,20.88
2023-03-19T00:40:55.631Z,24.38
2023-03-19T00:43:46.586Z,25.45
2023-03-19T00:46:36.826Z,23.83
2023-03-19T00:49:16.283Z,23.90
2023-03-19T00:51:58.017Z,22.63
2023-03-19T00:54:44.460Z,24.10
2023-03-19T00:57:28.109Z,25.42
2023-03-19T01:00:08.752Z,23.73
2023-03-19T01:02:54.359Z,25.90
2023-03-19T01:05:39.882Z,27.67
2023-03-19T01:08:21.296Z,25.58
2023-03-19T01:11:11.251Z,25.83
2023-03-19T01:13:54.265Z,28.20
2023-03-19T01:16:40.333Z,30.75
2023-03-19T01:19:29.355Z,27.05
2023-03-19T01:22:13.062Z,31.15
2023-03-19T01:24:54.085Z,34.45
2023-03-19T01:27:37.724Z,38.47
2023-03-19T01:30:33.073Z,48.67
2023-03-19T01:33:26.100Z,67.60
2023-03-19T01:36:10.211Z,35.58
2023-03-19T01:39:06.161Z,34.72
2023-03-19T01:41:41.878Z,35.63
2023-03-19T01:44:43.257Z,59.28
2023-03-19T01:47:40.654Z,93.07
2023-03-19T01:50:35.497Z,138.60
2023-03-19T01:53:46.685Z,164.25
2023-03-19T01:56:44.241Z,127.97
2023-03-19T01:59:51.353Z,106.28
2023-03-19T02:03:01.082Z,99.93
2023-03-19T02:06:01.950Z,82.63
2023-03-19T02:08:51.555Z,48.83
2023-03-19T02:11:29.217Z,50.35
2023-03-19T02:14:09.934Z,65.15
2023-03-19T02:16:47.849Z,82.28
2023-03-19T02:19:51.657Z,75.72
2023-03-19T02:22:34.919Z,91.28
2023-03-19T02:25:55.229Z,96.75
2023-03-19T02:28:40.764Z,66.20
2023-03-19T02:31:22.985Z,76.50
2023-03-19T02:34:38.853Z,62.00
2023-03-19T02:37:22.595Z,68.10
2023-03-19T02:40:22.773Z,66.22
2023-03-19T02:43:10.316Z,77.35
2023-03-19T02:45:52.961Z,62.75
2023-03-19T02:48:36.678Z,62.65
2023-03-19T02:51:20.355Z,62.90
2023-03-19T02:54:06.229Z,66.88
2023-03-19T02:56:52.060Z,33.45
2023-03-19T02:59:33.683Z,21.52
2023-03-19T03:02:19.263Z,20.20
2023-03-19T03:05:02.086Z,18.98
2023-03-19T03:07:44.671Z,18.92
2023-03-19T03:10:25.615Z,18.90
2023-03-19T03:13:11.292Z,18.40
2023-03-19T03:15:53.664Z,18.08
2023-03-19T03:18:31.351Z,16.50
2023-03-19T03:21:17.381Z,18.52
2023-03-19T03:24:09.570Z,17.80
2023-03-19T03:26:59.121Z,19.38
2023-03-19T03:29:37.939Z,19.83
2023-03-19T03:32:18.941Z,19.70
2023-03-19T03:35:02.105Z,19.63
2023-03-19T03:37:49.122Z,20.75
2023-03-19T03:40:34.939Z,20.02
2023-03-19T03:43:18.063Z,21.05
2023-03-19T03:45:56.162Z,21.35
2023-03-19T03:48:38.265Z,21.42
2023-03-19T03:51:11.686Z,21.83
2023-03-19T03:56:24.965Z,20.13
2023-03-19T03:59:11.601Z,21.15
2023-03-19T04:01:50.202Z,20.58
2023-03-19T04:04:33.910Z,22.13
2023-03-19T04:07:14.313Z,20.40
2023-03-19T04:10:03.432Z,23.60
2023-03-19T04:12:45.959Z,21.60
2023-03-19T04:15:19.185Z,21.27
2023-03-19T04:17:56.158Z,22.60
2023-03-19T04:20:45.124Z,22.48
2023-03-19T04:23:20.127Z,23.15
2023-03-19T04:26:05.557Z,20.98
2023-03-19T04:28:43.740Z,22.30
2023-03-19T04:31:27.398Z,23.55
2023-03-19T04:34:09.037Z,30.67
2023-03-19T04:36:52.961Z,28.90
2023-03-19T04:39:39.979Z,27.05
2023-03-19T04:42:20.688Z,23.90
2023-03-19T04:45:27.998Z,25.75
2023-03-19T04:48:11.231Z,32.65
2023-03-19T04:50:52.346Z,35.92
2023-03-19T04:53:35.823Z,55.15
2023-03-19T04:56:19.507Z,104.63
2023-03-19T04:59:02.432Z,113.50
2023-03-19T05:01:34.814Z,91.32
2023-03-19T05:04:13.749Z,92.97
2023-03-19T05:06:55.403Z,90.63
2023-03-19T05:09:39.613Z,67.20
2023-03-19T05:12:22.818Z,40.60
2023-03-19T05:14:59.230Z,36.67
2023-03-19T05:17:49.497Z,44.63
2023-03-19T05:20:56.108Z,53.38
2023-03-19T05:23:57.218Z,53.60
2023-03-19T05:26:38.837Z,40.72
2023-03-19T05:29:41.726Z,36.10
2023-03-19T05:32:52.002Z,28.90
2023-03-19T05:36:03.641Z,27.15
2023-03-19T05:39:08.144Z,28.55
2023-03-19T05:42:07.666Z,27.35
2023-03-19T05:44:52.447Z,24.30
2023-03-19T05:47:34.192Z,24.42
2023-03-19T05:50:20.327Z,23.17
2023-03-19T05:53:26.793Z,23.02
2023-03-19T05:56:28.633Z,22.38
2023-03-19T05:59:42.761Z,23.02
2023-03-19T06:02:48.955Z,22.13
2023-03-19T06:05:43.187Z,20.55
2023-03-19T06:08:35.805Z,19.58
2023-03-19T06:11:33.681Z,17.08
2023-03-19T06:14:38.453Z,19.63
2023-03-19T06:17:51.232Z,19.80
2023-03-19T06:20:42.499Z,18.25
2023-03-19T06:23:28.344Z,16.60
2023-03-19T06:26:08.960Z,17.75
2023-03-19T06:28:59.340Z,15.93
2023-03-19T06:31:45.647Z,16.42
2023-03-19T06:34:49.822Z,14.98
2023-03-19T06:37:34.609Z,15.38
2023-03-19T06:40:18.545Z,13.32
2023-03-19T06:42:57.635Z,14.02
2023-03-19T06:45:36.353Z,14.13
2023-03-19T06:48:20.224Z,14.40
2023-03-19T06:50:56.841Z,13.77
2023-03-19T06:53:42.107Z,12.80
2023-03-19T06:56:25.535Z,9.70
2023-03-19T06:59:11.716Z,9.68
2023-03-19T07:02:05.754Z,9.70
2023-03-19T07:04:52.429Z,9.40
2023-03-19T07:07:37.969Z,9.25
2023-03-19T07:10:27.721Z,8.27
2023-03-19T07:13:04.531Z,8.98
2023-03-19T07:15:53.221Z,8.70
2023-03-19T07:18:37.159Z,9.05
2023-03-19T07:21:29.386Z,8.35
2023-03-19T07:24:07.762Z,8.55
2023-03-19T07:26:57.425Z,8.00
2023-03-19T07:29:46.676Z,8.27
2023-03-19T07:32:32.767Z,8.35
2023-03-19T07:35:14.458Z,5.70
2023-03-19T07:37:55.544Z,8.25
2023-03-19T07:40:59.038Z,7.93
2023-03-19T07:43:46.659Z,6.97
2023-03-19T07:46:31.484Z,7.78
2023-03-19T07:49:20.749Z,7.30
2023-03-19T07:52:14.454Z,7.60
2023-03-19T07:54:50.153Z,7.05
2023-03-19T07:57:33.159Z,7.22
2023-03-19T08:00:23.773Z,6.70
2023-03-19T08:03:05.524Z,6.72
2023-03-19T08:06:02.535Z,6.72
2023-03-19T08:08:46.806Z,6.55
2023-03-19T08:11:29.871Z,6.68
2023-03-19T08:14:26.636Z,6.60
2023-03-19T08:17:02.056Z,6.47
2023-03-19T08:19:54.168Z,6.38
2023-03-19T08:22:41.884Z,8.07
2023-03-19T08:25:26.968Z,7.07
2023-03-19T08:28:16.877Z,6.45
2023-03-19T08:31:03.185Z,6.22
2023-03-19T08:33:49.184Z,6.15
2023-03-19T08:36:42.225Z,6.20
2023-03-19T08:39:20.384Z,6.30
2023-03-19T08:41:58.677Z,6.68
2023-03-19T08:44:49.484Z,7.57
2023-03-19T08:47:36.121Z,6.05
2023-03-19T08:50:16.827Z,6.55
2023-03-19T08:53:01.952Z,6.40
2023-03-19T08:55:51.064Z,7.05
2023-03-19T08:58:32.663Z,7.18
2023-03-19T09:01:21.662Z,6.57
2023-03-19T09:04:05.682Z,6.45
2023-03-19T09:06:51.611Z,7.50
2023-03-19T09:09:43.610Z,6.85
2023-03-19T09:12:29.935Z,7.07
2023-03-19T09:15:13.348Z,7.50
2023-03-19T09:18:04.685Z,6.45
2023-03-19T09:20:50.670Z,7.30
2023-03-19T09:23:38.581Z,6.93
2023-03-19T09:26:18.028Z,7.07
2023-03-19T09:29:05.687Z,6.70
2023-03-19T09:31:46.965Z,6.63
2023-03-19T09:34:33.769Z,6.22
2023-03-19T09:37:17.272Z,5.90
2023-03-19T09:40:00.878Z,7.00
2023-03-19T09:43:00.794Z,6.35
2023-03-19T09:45:45.613Z,6.15
2023-03-19T09:48:48.211Z,6.65
2023-03-19T09:51:30.564Z,6.68
2023-03-19T09:54:28.613Z,6.18
2023-03-19T09:57:15.116Z,5.45
2023-03-19T09:59:58.349Z,6.00
2023-03-19T10:03:03.637Z,6.50
2023-03-19T10:06:29.415Z,5.85
2023-03-19T10:09:52.424Z,5.60
2023-03-19T10:13:00.587Z,6.13
2023-03-19T10:15:41.142Z,6.35
2023-03-19T10:19:00.592Z,5.85
2023-03-19T10:22:01.118Z,6.18
2023-03-19T10:24:59.788Z,5.75
2023-03-19T10:27:37.107Z,5.95
2023-03-19T10:30:19.707Z,6.28
2023-03-19T10:33:27.546Z,5.45
2023-03-19T10:36:16.502Z,5.78
2023-03-19T10:39:09.809Z,6.63
2023-03-19T10:42:14.442Z,6.22
2023-03-19T10:45:24.247Z,6.72
2023-03-19T10:48:08.865Z,6.45
2023-03-19T10:51:15.023Z,6.28
2023-03-19T10:56:53.412Z,6.93
2023-03-19T10:59:39.371Z,7.00
2023-03-19T11:02:50.623Z,6.72
2023-03-19T11:05:38.744Z,6.45
2023-03-19T11:08:34.904Z,7.82
2023-03-19T11:11:45.497Z,6.47
2023-03-19T11:14:46.442Z,7.50
2023-03-19T11:18:00.481Z,7.25
2023-03-19T11:20:45.717Z,6.90
2023-03-19T11:23:40.089Z,6.97
2023-03-19T11:26:32.661Z,6.95
2023-03-19T11:29:20.934Z,6.40
2023-03-19T11:32:25.782Z,7.63
2023-03-19T11:35:25.875Z,6.78
2023-03-19T11:38:14.652Z,6.82
2023-03-19T11:41:06.300Z,6.82
2023-03-19T11:43:50.009Z,5.93
2023-03-19T11:46:42.940Z,5.85
2023-03-19T11:49:46.520Z,6.55
2023-03-19T11:52:58.659Z,5.30
2023-03-19T11:55:55.152Z,5.90
2023-03-19T11:59:09.477Z,6.47
2023-03-19T12:02:09.347Z,6.72
2023-03-19T12:04:56.752Z,6.18
2023-03-19T12:07:52.682Z,5.80
2023-03-19T12:10:57.660Z,5.85
2023-03-19T12:14:08.033Z,6.47
2023-03-19T12:17:06.728Z,5.45
2023-03-19T12:20:07.018Z,5.15
2023-03-19T12:23:19.674Z,5.25
2023-03-19T12:26:25.011Z,5.35
2023-03-19T12:29:18.664Z,4.93
2023-03-19T12:32:20.979Z,5.20
2023-03-19T12:35:11.124Z,5.72
2023-03-19T12:38:01.771Z,5.13
2023-03-19T12:40:58.482Z,4.72
2023-03-19T12:43:54.867Z,4.93
2023-03-19T12:46:39.102Z,4.90
2023-03-19T12:49:38.826Z,5.18
2023-03-19T12:52:27.786Z,4.82
2023-03-19T12:55:36.575Z,4.80
2023-03-19T12:58:28.403Z,4.43
2023-03-19T13:01:29.947Z,4.65
2023-03-19T13:04:29.279Z,4.60
2023-03-19T13:08:00.037Z,4.20
2023-03-19T13:10:46.377Z,4.18
2023-03-19T13:13:51.659Z,4.53
2023-03-19T13:16:41.449Z,4.47
2023-03-19T13:19:46.017Z,4.15
2023-03-19T13:22:22.767Z,4.65
2023-03-19T13:24:59.705Z,4.28
2023-03-19T13:27:41.664Z,4.38
2023-03-19T13:30:29.372Z,5.22
2023-03-19T13:33:25.829Z,4.45
2023-03-19T13:36:07.256Z,4.38
2023-03-19T13:38:50.855Z,4.72
2023-03-19T13:41:51.543Z,4.88
2023-03-19T13:44:46.701Z,4.90
2023-03-19T13:48:04.655Z,5.47
2023-03-19T13:51:36.697Z,5.35
2023-03-19T13:54:25.411Z,5.65
2023-03-19T13:57:18.664Z,5.82
2023-03-19T14:00:22.766Z,6.50
2023-03-19T14:03:38.439Z,6.68
2023-03-19T14:06:36.756Z,6.10
2023-03-19T14:09:41.057Z,6.97
2023-03-19T14:12:40.108Z,6.70
2023-03-19T14:15:28.748Z,6.32
2023-03-19T14:18:19.433Z,6.53
2023-03-19T14:21:36.087Z,6.60
2023-03-19T14:24:58.763Z,6.80
2023-03-19T14:28:04.157Z,5.63
2023-03-19T14:30:54.982Z,7.05
2023-03-19T14:33:58.523Z,6.80
2023-03-19T14:36:51.898Z,6.45
2023-03-19T14:39:59.685Z,7.22
2023-03-19T14:42:58.774Z,6.55
2023-03-19T14:45:44.994Z,7.13
2023-03-19T14:49:03.226Z,7.22
2023-03-19T14:51:57.179Z,6.65
2023-03-19T14:55:10.310Z,6.80
2023-03-19T14:57:59.807Z,6.78
2023-03-19T15:03:44.529Z,6.43
2023-03-19T15:06:27.714Z,6.20
2023-03-19T15:09:29.776Z,6.23
2023-03-19T15:12:34.106Z,6.55
2023-03-19T15:15:40.791Z,6.95
2023-03-19T15:18:27.115Z,7.25
2023-03-19T15:21:11.468Z,6.13
2023-03-19T15:24:01.604Z,6.03
2023-03-19T15:26:44.004Z,5.40
2023-03-19T15:29:33.215Z,5.70
2023-03-19T15:32:49.780Z,6.35
2023-03-19T15:35:42.013Z,5.82
2023-03-19T15:38:26.228Z,5.30
2023-03-19T15:41:12.094Z,5.45
2023-03-19T15:43:58.546Z,6.25
2023-03-19T15:46:42.702Z,5.88
2023-03-19T15:49:40.214Z,6.80
2023-03-19T15:52:26.218Z,6.40
2023-03-19T15:55:09.370Z,6.72
2023-03-19T15:58:00.671Z,6.47
2023-03-19T16:00:47.487Z,5.80
2023-03-19T16:03:52.123Z,5.95
2023-03-19T16:06:51.799Z,6.60
2023-03-19T16:09:34.809Z,6.65
2023-03-19T16:12:43.005Z,7.45
2023-03-19T16:16:22.887Z,7.00
2023-03-19T16:19:12.573Z,7.07
2023-03-19T16:22:00.180Z,6.78
2023-03-19T16:25:25.955Z,6.80
2023-03-19T16:28:08.032Z,6.53
2023-03-19T16:30:57.213Z,6.85
2023-03-19T16:33:37.744Z,6.45
2023-03-19T16:36:20.188Z,7.35
2023-03-19T16:39:29.112Z,8.50
2023-03-19T16:42:42.708Z,7.03
2023-03-19T16:45:38.766Z,7.57
2023-03-19T16:48:29.652Z,7.80
2023-03-19T16:51:19.672Z,7.80
2023-03-19T16:54:00.112Z,7.68
2023-03-19T16:56:54.710Z,8.95
2023-03-19T16:59:38.644Z,7.88
2023-03-19T17:02:28.025Z,7.30
2023-03-19T17:05:04.052Z,6.85
2023-03-19T17:07:50.835Z,7.53
2023-03-19T17:10:49.074Z,6.80
2023-03-19T17:13:38.358Z,7.50
2023-03-19T17:16:20.653Z,7.65
2023-03-19T17:19:15.898Z,7.45
2023-03-19T17:21:57.117Z,8.18
2023-03-19T17:24:43.682Z,8.65
2023-03-19T17:27:22.706Z,8.70
2023-03-19T17:30:08.138Z,8.13
2023-03-19T17:32:58.025Z,8.10
2023-03-19T17:35:48.759Z,8.23
2023-03-19T17:38:34.141Z,8.60
2023-03-19T17:41:24.105Z,8.23
2023-03-19T17:44:09.339Z,11.48
2023-03-19T17:46:58.688Z,13.18
2023-03-19T17:49:35.253Z,11.57
2023-03-19T17:52:30.677Z,11.85
2023-03-19T17:55:25.183Z,10.73
2023-03-19T17:58:09.845Z,9.95
2023-03-19T18:01:02.556Z,11.60
2023-03-19T18:03:42.997Z,12.23
2023-03-19T18:06:20.611Z,11.93
2023-03-19T18:08:58.057Z,10.77
2023-03-19T18:11:44.077Z,9.70
2023-03-19T18:14:32.847Z,9.50
2023-03-19T18:17:17.225Z,9.35
2023-03-19T18:19:56.362Z,14.38
2023-03-19T18:22:42.949Z,15.55
2023-03-19T18:25:32.257Z,14.52
2023-03-19T18:27:59.059Z,13.25
2023-03-19T18:30:49.601Z,13.98
2023-03-19T18:33:34.991Z,14.25
2023-03-19T18:36:24.594Z,11.85
2023-03-19T18:39:10.066Z,13.73
2023-03-19T18:41:56.957Z,11.20
2023-03-19T18:44:45.606Z,9.45
2023-03-19T18:47:29.226Z,10.35
2023-03-19T18:50:16.809Z,9.45
2023-03-19T18:53:06.359Z,8.35
2023-03-19T18:55:52.932Z,8.23
2023-03-19T18:58:36.516Z,10.48
2023-03-19T19:01:16.545Z,11.23
2023-03-19T19:04:09.136Z,10.98
2023-03-19T19:07:02.960Z,10.75
2023-03-19T19:09:47.114Z,10.85
2023-03-19T19:12:35.847Z,10.98
2023-03-19T19:15:19.360Z,11.48
2023-03-19T19:18:09.954Z,12.48
2023-03-19T19:20:51.278Z,13.25
2023-03-19T19:23:37.633Z,13.20
2023-03-19T19:26:50.137Z,12.77
2023-03-19T19:29:36.617Z,13.20
2023-03-19T19:32:36.746Z,12.38
2023-03-19T19:35:30.669Z,11.93
2023-03-19T19:38:08.385Z,13.07
2023-03-19T19:40:56.816Z,12.43
2023-03-19T19:43:42.011Z,13.75
2023-03-19T19:46:27.164Z,11.98
2023-03-19T19:49:15.499Z,11.13
2023-03-19T19:51:55.608Z,11.65
2023-03-19T19:54:44.492Z,10.20
2023-03-19T19:57:33.116Z,10.88
2023-03-19T20:00:30.959Z,10.70
2023-03-19T20:03:23.782Z,9.63
2023-03-19T20:06:12.985Z,9.50
2023-03-19T20:09:01.830Z,10.13
2023-03-19T20:11:42.355Z,10.23
2023-03-19T20:14:37.570Z,11.07
2023-03-19T20:17:29.819Z,11.82
2023-03-19T20:20:25.194Z,11.05
2023-03-19T20:23:10.217Z,11.18
2023-03-19T20:26:02.266Z,10.60
2023-03-19T20:28:47.999Z,11.75
2023-03-19T20:31:37.056Z,11.30
2023-03-19T20:34:38.447Z,11.27
2023-03-19T20:37:21.566Z,10.52
2023-03-19T20:40:00.619Z,11.17
2023-03-19T20:42:46.885Z,11.38
2023-03-19T20:45:44.646Z,12.00
2023-03-19T20:48:28.826Z,12.13
2023-03-19T20:51:08.089Z,12.75
2023-03-19T20:53:58.818Z,16.42
2023-03-19T20:56:38.196Z,20.33
2023-03-19T20:59:24.759Z,15.70
2023-03-19T21:02:28.422Z,17.08
2023-03-19T21:05:09.523Z,20.77
2023-03-19T21:08:04.587Z,19.98
2023-03-19T21:11:04.725Z,18.95
2023-03-19T21:13:57.104Z,15.48
2023-03-19T21:16:32.340Z,17.92
2023-03-19T21:19:21.403Z,15.85
2023-03-19T21:21:55.778Z,14.60
2023-03-19T21:24:42.658Z,14.20
2023-03-19T21:27:27.037Z,13.18
2023-03-19T21:30:17.053Z,14.02
2023-03-19T21:32:57.121Z,15.77
2023-03-19T21:35:43.332Z,15.27
2023-03-19T21:38:23.426Z,14.77
2023-03-19T21:41:12.493Z,16.40
2023-03-19T21:44:19.557Z,14.52
2023-03-19T21:47:02.635Z,14.82
2023-03-19T21:49:48.623Z,16.50
2023-03-19T21:52:28.437Z,16.30
2023-03-19T21:55:12.605Z,16.33
2023-03-19T21:58:05.696Z,16.27
2023-03-19T22:00:51.502Z,15.50
2023-03-19T22:03:34.635Z,16.10
2023-03-19T22:06:20.310Z,17.35
2023-03-19T22:09:11.392Z,16.17
2023-03-19T22:11:56.928Z,17.98
2023-03-19T22:14:54.641Z,16.38
2023-03-19T22:17:34.390Z,15.50
2023-03-19T22:20:28.689Z,15.82
2023-03-19T22:25:54.889Z,13.85
2023-03-19T22:28:37.207Z,13.80
2023-03-19T22:31:23.768Z,14.15
2023-03-19T22:34:17.650Z,14.30
2023-03-19T22:37:03.289Z,15.00
2023-03-19T22:39:51.032Z,14.40
2023-03-19T22:42:35.852Z,14.18
2023-03-19T22:45:34.970Z,14.20
2023-03-19T22:48:17.252Z,13.65
2023-03-19T22:51:09.014Z,14.00
2023-03-19T22:53:52.865Z,13.10
2023-03-19T22:56:29.051Z,12.95
2023-03-19T22:59:07.762Z,13.50
2023-03-19T23:01:58.067Z,13.40
2023-03-19T23:04:43.015Z,12.82
2023-03-19T23:07:28.938Z,13.90
2023-03-19T23:10:28.787Z,12.27
2023-03-19T23:13:12.731Z,12.52
2023-03-19T23:15:55.401Z,13.88
2023-03-19T23:18:41.710Z,13.80
2023-03-19T23:21:34.119Z,13.35
2023-03-19T23:24:14.063Z,12.68
2023-03-19T23:26:59.790Z,13.18
2023-03-19T23:29:51.929Z,14.13
2023-03-19T23:32:41.930Z,12.65
2023-03-19T23:35:24.907Z,14.13
2023-03-19T23:38:05.269Z,13.95
2023-03-19T23:40:55.968Z,12.82
2023-03-19T23:43:45.671Z,13.15
2023-03-19T23:46:34.602Z,12.48
2023-03-19T23:49:32.337Z,13.90
2023-03-19T23:52:22.585Z,14.35
2023-03-19T23:55:11.023Z,14.20
2023-03-19T23:57:50.620Z,12.90
